Reno, NV (89523)

8:40 PM PDT on August 22, 2014 (GMT -0700)
Reno, Somersett | Change Station
CLOSE
Current Station
Personal Weather Station
Location: Reno, NV
Elevation: 5299 ft
Nearby Weather Stations

Elev 5299 ft 39.54 °N, 119.93 °W | Updated 3 minutes ago

Partly Cloudy
Partly Cloudy
66.0 °F
Feels Like 66.0 °F
N
16.0
Wind Variable Wind from West
Gusts 23.0 mph

Today
High -- | Low -- °F
--% Chance of Precip.
Yesterday
High -- | Low -- °F
Precip. -- in
6:18 AM 7:45 PM
Waning Crescent, 5% visible
Pressure 29.85 in
Visibility 10.0 miles
Clouds Few 11000 ft
Dew Point 38 °F
Humidity 36%
Rainfall 0.00 in
Snow Depth Not available.
UV 0.0 out of 12
Pollen 7.90 out of 12
Air Quality Not available.
Flu Activity Not available.
METAR KRNO 230255Z 28015G22KT 10SM FEW110 23/03 A2999 RMK AO2 SLP106 T02330028 53016

More Conditions Fewer Conditions

Pressure 29.85 in
Visibility 10.0 miles
Clouds Few 11000 ft
Dew Point 38 °F
Humidity 36%
Rainfall 0.00 in
Snow Depth Not available.
UV 0.0 out of 12
Pollen 7.90 out of 12
Air Quality Not available.
Flu Activity Not available.
METAR KRNO 230255Z 28015G22KT 10SM FEW110 23/03 A2999 RMK AO2 SLP106 T02330028 53016

More Conditions Fewer Conditions

10-Day Weather Forecast

Almanac

Astronomy

Aug. 22, 2014 Rise Set
Actual Time 6:18 AM PDT 7:45 PM PDT
Civil Twilight 5:50 AM PDT 8:13 PM PDT
Nautical Twilight 5:16 AM PDT 8:47 PM PDT
Astronomical Twilight 4:40 AM PDT 9:23 PM PDT
Moon 3:46 AM PDT (8/22) 5:56 PM PDT (8/22)
Length of Visible Light 14h 23m
Length of Day
13h 26m
Tomorrow will be 2m 24s shorter.
Waning Crescent, 5% of the Moon is Illuminated
Today
Waning Crescent
Aug 25
New
Sep 2
First Quarter
Sep 8
Full
Sep 15
Last Quarter

Today's Extremes

State Highs State Lows

Community

WunderPhotos

Upload Photos

1,746,352 photos uploaded!

WunderBlogs® & News

Nearby

Snow Depth

Station Depth Elevation
Big Creek Summit 0 in 8700 ft
Sheldon 0 in 5860 ft
Lamance Creek 1 in 6000 ft
Disaster Peak 0 in 6500 ft
Granite Peak 1 in 7800 ft

Earthquake Activity

City Distance Mag. Time & Date
No recent earthquake activity has been reported nearby.
Minimum magnitude displayed is 2.5.

Coastal Water Temperatures

Place Temperature
No Stations Reporting

Nearby Weather Stations